Haddon Heights, New Jersey
Current Conditions -  °F | °C
As of 2:54 AM on Friday 24 Oct 2014 (Local Time) from KPHL Reporting Station
Broken Clouds Broken Clouds  
Wind Chill: 55°   Ceiling: 3000
Heat Index: 55°   Visibility: 10mi
Dew Point: 44°   Wind: 12mph
Humidity: 67%   Direction: 320°NW
Pressure: 29.83"   Gusts: NA
Location:  39.88°N, 75.06°W
Report Text: KPHL 240654Z 32010KT 10SM BKN030 BKN055 13/07 A2983 RMK AO2 SLP101 T01280067 PNO $
Loading
Personal Weather Stations






























Interactive Weather Map
Tropical Storm Tracking
New forecast layout! Learn more

10-Day Weather Forecast

Advertisements
Track Severe Weather on mobile